createdAt,value
2022-08-11T00:00:43.568Z,64.80
2022-08-11T00:01:58.138Z,64.52
2022-08-11T00:03:12.526Z,64.60
2022-08-11T00:04:17.196Z,65.17
2022-08-11T00:05:22.158Z,65.20
2022-08-11T00:06:28.062Z,65.42
2022-08-11T00:07:34.314Z,65.69
2022-08-11T00:08:41.053Z,65.89
2022-08-11T00:09:43.875Z,65.89
2022-08-11T00:10:58.616Z,65.87
2022-08-11T00:12:03.195Z,66.24
2022-08-11T00:13:09.939Z,66.21
2022-08-11T00:14:21.846Z,66.67
2022-08-11T00:15:38.339Z,66.66
2022-08-11T00:16:43.694Z,66.94
2022-08-11T00:17:48.010Z,67.16
2022-08-11T00:18:55.737Z,67.05
2022-08-11T00:20:11.857Z,67.62
2022-08-11T00:21:21.097Z,67.82
2022-08-11T00:22:46.809Z,67.91
2022-08-11T00:24:04.296Z,68.36
2022-08-11T00:25:34.116Z,68.99
2022-08-11T00:26:41.236Z,68.84
2022-08-11T00:27:45.769Z,68.99
2022-08-11T00:28:55.203Z,69.00
2022-08-11T00:30:00.856Z,68.92
2022-08-11T00:31:12.054Z,69.15
2022-08-11T00:32:19.918Z,69.50
2022-08-11T00:33:44.235Z,69.86
2022-08-11T00:34:50.354Z,69.59
2022-08-11T00:36:00.990Z,69.62
2022-08-11T00:37:10.327Z,69.91
2022-08-11T00:38:14.626Z,69.87
2022-08-11T00:39:19.414Z,69.87
2022-08-11T00:40:44.151Z,70.06
2022-08-11T00:42:04.390Z,70.41
2022-08-11T00:44:01.132Z,70.31
2022-08-11T00:45:25.281Z,70.79
2022-08-11T00:46:37.469Z,71.14
2022-08-11T00:48:01.233Z,70.54
2022-08-11T00:49:03.844Z,70.82
2022-08-11T00:50:43.225Z,71.46
2022-08-11T00:54:00.127Z,70.42
2022-08-11T00:55:20.883Z,70.57
2022-08-11T00:56:53.292Z,70.95
2022-08-11T00:58:30.033Z,70.82
2022-08-11T00:59:49.389Z,71.32
2022-08-11T01:01:03.926Z,71.36
2022-08-11T01:02:39.505Z,71.73
2022-08-11T01:04:23.626Z,71.88
2022-08-11T01:05:55.588Z,72.45
2022-08-11T01:08:02.389Z,72.67
2022-08-11T01:09:22.638Z,72.58
2022-08-11T01:11:03.611Z,73.24
2022-08-11T01:12:20.131Z,73.09
2022-08-11T01:13:27.644Z,73.19
2022-08-11T01:14:58.384Z,73.02
2022-08-11T01:16:37.948Z,73.61
2022-08-11T01:17:44.001Z,72.84
2022-08-11T01:19:19.415Z,73.15
2022-08-11T01:20:49.407Z,73.31
2022-08-11T01:22:10.530Z,73.46
2022-08-11T01:23:27.751Z,73.81
2022-08-11T01:24:49.645Z,73.72
2022-08-11T01:25:57.794Z,73.59
2022-08-11T01:27:20.170Z,74.03
2022-08-11T01:28:59.676Z,73.47
2022-08-11T01:30:22.170Z,73.40
2022-08-11T01:31:59.987Z,73.60
2022-08-11T01:33:27.397Z,73.41
2022-08-11T01:35:12.757Z,73.99
2022-08-11T01:36:34.743Z,73.43
2022-08-11T01:37:52.155Z,73.36
2022-08-11T01:39:22.235Z,72.72
2022-08-11T01:40:45.563Z,73.03
2022-08-11T01:42:25.324Z,73.37
2022-08-11T01:44:24.449Z,73.79
2022-08-11T01:45:39.054Z,74.13
2022-08-11T01:46:54.511Z,73.59
2022-08-11T01:48:11.724Z,74.53
2022-08-11T01:50:08.550Z,74.32
2022-08-11T01:51:45.395Z,73.92
2022-08-11T01:53:05.541Z,74.03
2022-08-11T01:54:27.431Z,74.20
2022-08-11T01:55:51.082Z,74.45
2022-08-11T01:57:20.719Z,73.40
2022-08-11T01:58:43.839Z,74.73
2022-08-11T01:59:55.316Z,74.28
2022-08-11T02:01:28.281Z,74.91
2022-08-11T02:02:54.210Z,74.22
2022-08-11T02:04:17.780Z,74.48
2022-08-11T02:05:47.875Z,74.91
2022-08-11T02:07:24.658Z,74.68
2022-08-11T02:08:50.672Z,74.82
2022-08-11T02:10:59.435Z,75.85
2022-08-11T02:12:52.403Z,75.48
2022-08-11T02:14:16.634Z,76.13
2022-08-11T02:15:35.680Z,76.09
2022-08-11T02:16:46.843Z,75.95
2022-08-11T02:17:51.593Z,75.76
2022-08-11T02:19:31.176Z,75.62
2022-08-11T02:21:07.230Z,76.08
2022-08-11T02:22:36.712Z,77.29
2022-08-11T02:24:05.036Z,76.31
2022-08-11T02:25:31.546Z,75.18
2022-08-11T02:26:34.014Z,75.29
2022-08-11T02:27:46.056Z,74.18
2022-08-11T02:29:26.305Z,70.06
2022-08-11T02:30:47.259Z,67.21
2022-08-11T02:32:24.399Z,64.62
2022-08-11T02:33:38.790Z,62.49
2022-08-11T02:34:59.576Z,60.28
2022-08-11T02:36:09.020Z,59.08
2022-08-11T02:37:35.189Z,57.33
2022-08-11T02:39:25.355Z,56.18
2022-08-11T02:41:25.413Z,56.20
2022-08-11T02:43:01.542Z,55.45
2022-08-11T02:44:22.041Z,54.23
2022-08-11T02:46:01.675Z,53.32
2022-08-11T02:47:14.864Z,53.17
2022-08-11T02:48:52.476Z,52.11
2022-08-11T02:50:07.433Z,52.61
2022-08-11T02:51:47.473Z,51.86
2022-08-11T02:53:20.270Z,51.02
2022-08-11T02:54:53.087Z,51.18
2022-08-11T02:56:09.328Z,50.47
2022-08-11T02:57:35.236Z,49.88
2022-08-11T02:59:11.490Z,49.36
2022-08-11T03:00:16.857Z,49.34
2022-08-11T03:01:49.536Z,49.96
2022-08-11T03:03:24.480Z,49.61
2022-08-11T03:04:37.911Z,49.53
2022-08-11T03:06:06.166Z,48.57
2022-08-11T03:07:40.602Z,47.53
2022-08-11T03:09:19.750Z,47.64
2022-08-11T03:10:44.638Z,47.55
2022-08-11T03:12:26.902Z,48.60
2022-08-11T03:13:53.299Z,52.28
2022-08-11T03:15:23.332Z,55.41
2022-08-11T03:16:52.969Z,58.50
2022-08-11T03:18:28.477Z,60.57
2022-08-11T03:20:15.691Z,63.19
2022-08-11T03:22:01.931Z,63.58
2022-08-11T03:23:39.783Z,64.73
2022-08-11T03:24:44.904Z,66.02
2022-08-11T03:25:56.882Z,66.21
2022-08-11T03:27:01.817Z,66.91
2022-08-11T03:28:31.770Z,67.81
2022-08-11T03:29:42.840Z,67.80
2022-08-11T03:31:25.006Z,68.78
2022-08-11T03:32:35.126Z,68.93
2022-08-11T03:34:08.466Z,68.18
2022-08-11T03:35:21.131Z,69.34
2022-08-11T03:37:01.732Z,69.38
2022-08-11T03:38:11.389Z,69.93
2022-08-11T03:39:14.413Z,69.39
2022-08-11T03:40:38.131Z,69.41
2022-08-11T03:42:17.728Z,69.26
2022-08-11T03:43:58.461Z,68.89
2022-08-11T03:45:24.270Z,69.74
2022-08-11T03:46:39.972Z,71.27
2022-08-11T03:48:07.584Z,70.38
2022-08-11T03:49:19.119Z,71.15
2022-08-11T03:50:37.019Z,70.67
2022-08-11T03:51:58.557Z,70.87
2022-08-11T03:53:28.346Z,71.61
2022-08-11T03:54:48.128Z,71.69
2022-08-11T03:56:28.571Z,71.89
2022-08-11T03:57:53.202Z,72.21
2022-08-11T03:59:30.042Z,72.08
2022-08-11T04:01:09.844Z,71.31
2022-08-11T04:02:34.753Z,63.04
2022-08-11T04:04:18.910Z,56.50
2022-08-11T04:05:42.667Z,53.59
2022-08-11T04:07:17.540Z,51.27
2022-08-11T04:08:49.027Z,47.97
2022-08-11T04:10:01.232Z,46.19
2022-08-11T04:11:11.278Z,43.88
2022-08-11T04:12:45.687Z,43.22
2022-08-11T04:13:42.562Z,42.33
2022-08-11T04:15:38.312Z,40.83
2022-08-11T04:16:55.095Z,39.93
2022-08-11T04:18:44.911Z,40.99
2022-08-11T04:20:25.366Z,39.17
2022-08-11T04:21:58.499Z,38.86
2022-08-11T04:24:35.528Z,38.87
2022-08-11T04:25:09.992Z,37.47
2022-08-11T04:26:51.305Z,37.57
2022-08-11T04:28:31.827Z,36.33
2022-08-11T04:30:12.350Z,37.01
2022-08-11T04:32:06.281Z,38.58
2022-08-11T04:33:34.268Z,34.64
2022-08-11T04:34:42.990Z,33.12
2022-08-11T04:36:15.743Z,34.41
2022-08-11T04:37:36.278Z,34.26
2022-08-11T04:39:20.483Z,35.12
2022-08-11T04:40:41.321Z,34.56
2022-08-11T04:42:06.142Z,34.08
2022-08-11T04:44:02.226Z,34.99
2022-08-11T04:45:35.952Z,33.87
2022-08-11T04:47:13.443Z,33.92
2022-08-11T04:48:52.972Z,32.49
2022-08-11T04:50:20.288Z,31.68
2022-08-11T04:52:02.823Z,32.00
2022-08-11T04:53:57.448Z,32.46
2022-08-11T04:55:37.865Z,33.09
2022-08-11T04:57:02.595Z,33.08
2022-08-11T04:58:36.648Z,33.00
2022-08-11T05:00:25.744Z,32.05
2022-08-11T05:02:06.455Z,31.55
2022-08-11T05:03:38.091Z,31.60
2022-08-11T05:05:18.759Z,31.72
2022-08-11T05:07:15.139Z,32.36
2022-08-11T05:08:51.536Z,29.66
2022-08-11T05:10:07.681Z,28.82
2022-08-11T05:11:22.172Z,28.49
2022-08-11T05:12:30.565Z,29.41
2022-08-11T05:13:54.024Z,29.28
2022-08-11T05:15:16.711Z,29.50
2022-08-11T05:16:49.484Z,29.47
2022-08-11T05:18:35.832Z,28.29
2022-08-11T05:19:57.129Z,29.76
2022-08-11T05:21:25.167Z,29.33
2022-08-11T05:22:49.048Z,28.94
2022-08-11T05:24:17.101Z,28.51
2022-08-11T05:26:43.465Z,29.49
2022-08-11T05:27:34.388Z,29.60
2022-08-11T05:29:20.201Z,29.32
2022-08-11T05:30:47.678Z,30.55
2022-08-11T05:32:17.939Z,32.42
2022-08-11T05:34:06.246Z,30.63
2022-08-11T05:35:09.432Z,30.86
2022-08-11T05:36:28.224Z,29.30
2022-08-11T05:37:30.342Z,28.23
2022-08-11T05:38:54.862Z,27.65
2022-08-11T05:40:24.644Z,27.10
2022-08-11T05:41:49.436Z,29.19
2022-08-11T05:43:15.619Z,30.63
2022-08-11T05:44:38.447Z,31.80
2022-08-11T05:46:03.717Z,30.59
2022-08-11T05:47:26.278Z,29.25
2022-08-11T05:48:54.021Z,28.48
2022-08-11T05:50:15.882Z,29.26
2022-08-11T05:51:37.975Z,29.87
2022-08-11T05:52:59.307Z,29.72
2022-08-11T05:54:28.128Z,31.06
2022-08-11T05:56:02.413Z,28.85
2022-08-11T05:57:08.029Z,28.50
2022-08-11T05:58:13.647Z,28.96
2022-08-11T05:59:18.633Z,29.41
2022-08-11T06:00:21.305Z,30.06
2022-08-11T06:01:34.054Z,28.97
2022-08-11T06:02:54.326Z,29.73
2022-08-11T06:04:16.439Z,29.27
2022-08-11T06:05:19.698Z,29.50
2022-08-11T06:06:22.983Z,29.33
2022-08-11T06:07:48.461Z,29.13
2022-08-11T06:08:57.389Z,29.15
2022-08-11T06:10:03.759Z,30.59
2022-08-11T06:11:06.840Z,30.76
2022-08-11T06:12:21.946Z,30.69
2022-08-11T06:13:26.038Z,30.24
2022-08-11T06:14:29.658Z,31.34
2022-08-11T06:15:34.268Z,30.37
2022-08-11T06:16:37.512Z,31.31
2022-08-11T06:17:47.965Z,31.99
2022-08-11T06:18:50.222Z,30.10
2022-08-11T06:20:07.537Z,28.82
2022-08-11T06:21:11.808Z,29.38
2022-08-11T06:22:20.297Z,27.39
2022-08-11T06:23:24.378Z,28.69
2022-08-11T06:24:28.575Z,29.05
2022-08-11T06:25:33.179Z,29.48
2022-08-11T06:26:49.517Z,29.83
2022-08-11T06:27:58.164Z,28.36
2022-08-11T06:29:02.052Z,29.12
2022-08-11T06:30:13.895Z,29.62
2022-08-11T06:31:19.985Z,27.83
2022-08-11T06:32:26.467Z,27.67
2022-08-11T06:33:44.153Z,28.96
2022-08-11T06:34:55.533Z,29.87
2022-08-11T06:36:07.061Z,29.35
2022-08-11T06:37:47.054Z,30.38
2022-08-11T06:39:21.388Z,30.43
2022-08-11T06:40:36.942Z,28.96
2022-08-11T06:41:49.843Z,30.42
2022-08-11T06:43:06.056Z,31.15
2022-08-11T06:44:13.972Z,32.10
2022-08-11T06:45:21.048Z,30.73
2022-08-11T06:46:31.487Z,32.07
2022-08-11T06:47:35.094Z,30.05
2022-08-11T06:48:45.174Z,29.44
2022-08-11T06:50:07.712Z,31.43
2022-08-11T06:51:14.004Z,30.80
2022-08-11T06:52:34.805Z,29.56
2022-08-11T06:54:04.437Z,29.41
2022-08-11T06:55:57.673Z,31.48
2022-08-11T06:57:30.842Z,31.35
2022-08-11T06:58:59.061Z,30.78
2022-08-11T07:00:20.770Z,31.58
2022-08-11T07:01:55.044Z,29.73
2022-08-11T07:03:09.631Z,28.90
2022-08-11T07:04:15.132Z,28.89
2022-08-11T07:05:45.577Z,28.67
2022-08-11T07:07:20.432Z,27.97
2022-08-11T07:09:00.167Z,26.57
2022-08-11T07:10:44.381Z,28.42
2022-08-11T07:12:43.584Z,28.60
2022-08-11T07:14:05.372Z,29.74
2022-08-11T07:16:12.852Z,27.22
2022-08-11T07:16:53.205Z,29.55
2022-08-11T07:18:19.359Z,28.98
2022-08-11T07:19:45.009Z,28.57
2022-08-11T07:22:01.365Z,29.29
2022-08-11T07:22:51.474Z,28.89
2022-08-11T07:24:14.686Z,28.27
2022-08-11T07:25:36.353Z,29.43
2022-08-11T07:27:02.696Z,29.66
2022-08-11T07:28:33.467Z,28.10
2022-08-11T07:29:39.318Z,28.83
2022-08-11T07:30:43.018Z,27.33
2022-08-11T07:31:51.260Z,26.36
2022-08-11T07:32:57.327Z,27.31
2022-08-11T07:34:15.913Z,26.94
2022-08-11T07:35:34.642Z,26.93
2022-08-11T07:36:43.248Z,27.89
2022-08-11T07:38:01.351Z,27.25
2022-08-11T07:39:07.926Z,28.12
2022-08-11T07:40:11.732Z,28.53
2022-08-11T07:41:15.766Z,28.77
2022-08-11T07:42:23.985Z,26.42
2022-08-11T07:43:26.565Z,27.36
2022-08-11T07:44:35.082Z,27.93
2022-08-11T07:46:04.757Z,27.64
2022-08-11T07:47:25.876Z,27.62
2022-08-11T07:48:48.611Z,28.07
2022-08-11T07:50:12.405Z,28.18
2022-08-11T07:51:38.487Z,28.14
2022-08-11T07:52:41.216Z,27.71
2022-08-11T07:53:58.712Z,27.71
2022-08-11T07:55:13.899Z,27.84
2022-08-11T07:56:24.905Z,27.31
2022-08-11T07:58:16.499Z,26.49
2022-08-11T08:00:04.124Z,27.69
2022-08-11T08:01:38.875Z,26.69
2022-08-11T08:03:02.570Z,25.72
2022-08-11T08:04:25.418Z,26.07
2022-08-11T08:05:46.721Z,26.09
2022-08-11T08:07:08.249Z,25.56
2022-08-11T08:08:30.453Z,27.67
2022-08-11T08:09:54.982Z,25.91
2022-08-11T08:11:16.436Z,25.72
2022-08-11T08:12:40.844Z,26.34
2022-08-11T08:14:05.582Z,25.66
2022-08-11T08:15:28.570Z,25.52
2022-08-11T08:16:50.538Z,26.50
2022-08-11T08:18:20.903Z,24.47
2022-08-11T08:19:21.871Z,26.60
2022-08-11T08:20:50.457Z,27.70
2022-08-11T08:21:53.668Z,28.10
2022-08-11T08:23:10.088Z,27.57
2022-08-11T08:24:12.916Z,28.46
2022-08-11T08:25:15.720Z,28.37
2022-08-11T08:26:37.359Z,29.08
2022-08-11T08:27:40.258Z,28.42
2022-08-11T08:28:46.787Z,29.20
2022-08-11T08:30:08.304Z,28.22
2022-08-11T08:31:11.084Z,28.10
2022-08-11T08:32:14.406Z,28.36
2022-08-11T08:33:35.123Z,26.96
2022-08-11T08:34:40.374Z,25.57
2022-08-11T08:35:54.071Z,26.82
2022-08-11T08:36:58.305Z,27.46
2022-08-11T08:38:01.476Z,26.26
2022-08-11T08:39:03.626Z,28.10
2022-08-11T08:40:09.964Z,27.51
2022-08-11T08:41:16.663Z,28.51
2022-08-11T08:42:27.722Z,28.92
2022-08-11T08:43:32.526Z,29.48
2022-08-11T08:45:06.105Z,27.87
2022-08-11T08:46:10.718Z,28.18
2022-08-11T08:47:41.664Z,29.30
2022-08-11T08:48:43.368Z,28.62
2022-08-11T08:49:51.923Z,28.04
2022-08-11T08:51:21.953Z,27.85
2022-08-11T08:52:31.895Z,26.76
2022-08-11T08:53:52.351Z,27.58
2022-08-11T08:55:00.294Z,27.17
2022-08-11T08:56:03.470Z,26.49
2022-08-11T08:57:08.443Z,25.37
2022-08-11T08:58:12.501Z,24.30
2022-08-11T08:59:16.689Z,23.84
2022-08-11T09:00:23.369Z,24.23
2022-08-11T09:01:31.460Z,25.09
2022-08-11T09:02:39.707Z,26.07
2022-08-11T09:04:05.240Z,26.46
2022-08-11T09:05:08.119Z,27.72
2022-08-11T09:06:11.385Z,26.99
2022-08-11T09:07:17.115Z,26.22
2022-08-11T09:08:22.034Z,26.84
2022-08-11T09:09:25.955Z,26.38
2022-08-11T09:10:31.159Z,25.68
2022-08-11T09:11:52.995Z,25.67
2022-08-11T09:12:55.672Z,25.73
2022-08-11T09:14:05.161Z,26.36
2022-08-11T09:15:10.616Z,27.26
2022-08-11T09:16:16.227Z,25.54
2022-08-11T09:17:20.534Z,24.65
2022-08-11T09:18:22.982Z,24.76
2022-08-11T09:19:26.885Z,25.53
2022-08-11T09:20:34.551Z,24.87
2022-08-11T09:21:48.410Z,26.00
2022-08-11T09:24:06.708Z,26.48
2022-08-11T09:24:56.347Z,27.55
2022-08-11T09:26:19.667Z,28.00
2022-08-11T09:27:24.387Z,27.59
2022-08-11T09:28:29.824Z,28.43
2022-08-11T09:29:33.206Z,28.52
2022-08-11T09:30:36.051Z,28.69
2022-08-11T09:31:40.348Z,29.43
2022-08-11T09:32:43.537Z,28.76
2022-08-11T09:33:47.071Z,28.36
2022-08-11T09:34:52.490Z,28.26
2022-08-11T09:35:57.817Z,28.62
2022-08-11T09:37:28.386Z,27.78
2022-08-11T09:39:00.370Z,26.01
2022-08-11T09:40:23.150Z,25.52
2022-08-11T09:42:01.943Z,24.58
2022-08-11T09:43:20.189Z,25.13
2022-08-11T09:44:41.985Z,25.35
2022-08-11T09:45:51.656Z,26.68
2022-08-11T09:46:59.525Z,27.70
2022-08-11T09:48:05.457Z,27.76
2022-08-11T09:49:08.948Z,28.94
2022-08-11T09:50:15.281Z,29.73
2022-08-11T09:51:18.131Z,31.01
2022-08-11T09:52:22.861Z,31.11
2022-08-11T09:53:41.065Z,30.45
2022-08-11T09:54:48.241Z,30.78
2022-08-11T09:55:54.953Z,30.30
2022-08-11T09:57:17.030Z,30.67
2022-08-11T09:58:42.365Z,29.64
2022-08-11T09:59:42.804Z,29.36
2022-08-11T10:00:49.418Z,29.61
2022-08-11T10:02:00.714Z,29.27
2022-08-11T10:03:07.480Z,29.43
2022-08-11T10:04:17.705Z,29.91
2022-08-11T10:05:39.848Z,30.35
2022-08-11T10:07:04.497Z,29.74
2022-08-11T10:08:12.715Z,30.43
2022-08-11T10:09:21.103Z,30.24
2022-08-11T10:10:27.391Z,30.80
2022-08-11T10:11:30.560Z,30.77
2022-08-11T10:12:36.739Z,29.59
2022-08-11T10:14:32.825Z,29.27
2022-08-11T10:15:38.454Z,31.74
2022-08-11T10:16:43.128Z,30.77
2022-08-11T10:18:08.984Z,30.86
2022-08-11T10:19:11.859Z,30.34
2022-08-11T10:20:14.832Z,31.22
2022-08-11T10:21:30.998Z,30.63
2022-08-11T10:22:53.867Z,30.53
2022-08-11T10:24:18.444Z,30.84
2022-08-11T10:25:40.117Z,30.58
2022-08-11T10:26:55.940Z,30.33
2022-08-11T10:28:28.711Z,30.44
2022-08-11T10:29:49.814Z,30.74
2022-08-11T10:31:32.569Z,30.10
2022-08-11T10:33:10.617Z,30.84
2022-08-11T10:34:24.631Z,31.36
2022-08-11T10:35:32.195Z,31.63
2022-08-11T10:36:51.042Z,31.94
2022-08-11T10:38:06.531Z,32.23
2022-08-11T10:39:18.054Z,32.31
2022-08-11T10:40:24.438Z,32.74
2022-08-11T10:42:08.596Z,33.50
2022-08-11T10:43:14.539Z,34.06
2022-08-11T10:44:45.570Z,33.30
2022-08-11T10:46:36.549Z,33.40
2022-08-11T10:47:44.456Z,33.14
2022-08-11T10:48:52.453Z,32.47
2022-08-11T10:50:21.993Z,32.20
2022-08-11T10:51:50.561Z,32.39
2022-08-11T10:53:18.507Z,33.00
2022-08-11T10:54:44.811Z,33.97
2022-08-11T10:56:08.632Z,33.52
2022-08-11T10:57:30.963Z,33.87
2022-08-11T10:58:52.204Z,33.50
2022-08-11T10:59:56.071Z,33.37
2022-08-11T11:01:00.932Z,33.52
2022-08-11T11:02:03.888Z,33.55
2022-08-11T11:03:23.070Z,33.86
2022-08-11T11:04:50.968Z,33.95
2022-08-11T11:06:28.836Z,33.69
2022-08-11T11:07:30.857Z,33.71
2022-08-11T11:08:57.699Z,33.25
2022-08-11T11:10:08.785Z,33.56
2022-08-11T11:11:18.444Z,33.11
2022-08-11T11:13:04.902Z,33.00
2022-08-11T11:14:30.444Z,33.28
2022-08-11T11:15:54.576Z,33.04
2022-08-11T11:17:16.762Z,33.01
2022-08-11T11:18:23.251Z,33.22
2022-08-11T11:19:28.063Z,33.36
2022-08-11T11:20:47.839Z,33.30
2022-08-11T11:21:53.988Z,33.11
2022-08-11T11:23:01.936Z,33.55
2022-08-11T11:24:41.475Z,33.51
2022-08-11T11:26:13.075Z,33.37
2022-08-11T11:27:28.736Z,33.45
2022-08-11T11:28:55.339Z,33.48
2022-08-11T11:30:08.559Z,34.08
2022-08-11T11:31:31.578Z,33.59
2022-08-11T11:32:49.936Z,33.46
2022-08-11T11:34:12.344Z,33.45
2022-08-11T11:35:28.151Z,33.29
2022-08-11T11:36:50.877Z,33.09
2022-08-11T11:38:03.997Z,33.96
2022-08-11T11:39:18.607Z,33.40
2022-08-11T11:40:28.692Z,33.71
2022-08-11T11:41:35.616Z,33.76
2022-08-11T11:42:42.056Z,34.45
2022-08-11T11:43:46.215Z,34.17
2022-08-11T11:44:49.519Z,34.26
2022-08-11T11:45:53.198Z,34.24
2022-08-11T11:46:56.875Z,34.44
2022-08-11T11:48:01.436Z,34.42
2022-08-11T11:49:15.323Z,34.22
2022-08-11T11:50:25.119Z,34.38
2022-08-11T11:51:37.573Z,34.06
2022-08-11T11:52:43.924Z,34.57
2022-08-11T11:53:48.811Z,34.70
2022-08-11T11:54:56.348Z,34.78
2022-08-11T11:56:00.549Z,35.03
2022-08-11T11:57:23.359Z,34.74
2022-08-11T11:58:48.068Z,34.41
2022-08-11T12:00:10.472Z,34.08
2022-08-11T12:01:17.339Z,34.20
2022-08-11T12:02:20.461Z,33.00
2022-08-11T12:03:27.501Z,32.62
2022-08-11T12:04:33.314Z,32.93
2022-08-11T12:05:37.981Z,32.89
2022-08-11T12:06:42.374Z,33.13
2022-08-11T12:08:05.294Z,33.70
2022-08-11T12:09:18.597Z,33.84
2022-08-11T12:10:24.805Z,33.36
2022-08-11T12:11:48.791Z,33.40
2022-08-11T12:13:13.515Z,33.58
2022-08-11T12:14:21.967Z,33.25
2022-08-11T12:16:03.633Z,33.16
2022-08-11T12:16:51.860Z,32.87
2022-08-11T12:17:55.706Z,33.09
2022-08-11T12:19:00.924Z,32.78
2022-08-11T12:20:04.918Z,33.25
2022-08-11T12:21:29.211Z,33.09
2022-08-11T12:22:50.704Z,32.48
2022-08-11T12:24:14.447Z,32.82
2022-08-11T12:25:37.493Z,32.77
2022-08-11T12:27:16.278Z,32.29
2022-08-11T12:28:23.212Z,32.56
2022-08-11T12:29:35.807Z,32.74
2022-08-11T12:31:46.981Z,32.70
2022-08-11T12:32:50.853Z,33.03
2022-08-11T12:34:00.187Z,32.95
2022-08-11T12:35:03.437Z,33.06
2022-08-11T12:36:06.691Z,33.14
2022-08-11T12:37:14.030Z,33.16
2022-08-11T12:38:18.321Z,33.33
2022-08-11T12:40:16.415Z,32.84
2022-08-11T12:41:41.017Z,33.08
2022-08-11T12:43:20.664Z,32.76
2022-08-11T12:44:47.469Z,32.72
2022-08-11T12:45:59.034Z,32.67
2022-08-11T12:47:02.545Z,32.82
2022-08-11T12:48:59.136Z,32.85
2022-08-11T12:50:22.714Z,32.55
2022-08-11T12:52:11.528Z,32.20
2022-08-11T12:53:13.297Z,32.46
2022-08-11T12:54:23.229Z,32.23
2022-08-11T12:56:03.646Z,32.21
2022-08-11T12:57:38.063Z,32.20
2022-08-11T12:58:43.557Z,32.21
2022-08-11T13:00:08.168Z,32.38
2022-08-11T13:01:32.698Z,32.51
2022-08-11T13:02:54.441Z,32.75
2022-08-11T13:04:19.061Z,32.74
2022-08-11T13:05:22.704Z,32.62
2022-08-11T13:06:28.042Z,32.75
2022-08-11T13:07:50.554Z,32.46
2022-08-11T13:09:00.992Z,32.65
2022-08-11T13:10:07.064Z,32.62
2022-08-11T13:11:55.548Z,32.53
2022-08-11T13:12:59.797Z,32.76
2022-08-11T13:14:03.741Z,32.56
2022-08-11T13:15:08.276Z,32.39
2022-08-11T13:16:11.695Z,32.45
2022-08-11T13:17:43.545Z,32.21
2022-08-11T13:18:47.104Z,32.15
2022-08-11T13:19:50.244Z,31.98
2022-08-11T13:20:54.838Z,32.22
2022-08-11T13:22:02.925Z,32.26
2022-08-11T13:23:06.913Z,32.19
2022-08-11T13:24:09.972Z,31.99
2022-08-11T13:25:18.946Z,31.94
2022-08-11T13:26:25.023Z,32.19
2022-08-11T13:27:48.963Z,33.04
2022-08-11T13:28:54.715Z,33.74
2022-08-11T13:30:17.929Z,33.88
2022-08-11T13:31:20.554Z,33.55
2022-08-11T13:32:26.845Z,33.42
2022-08-11T13:33:30.114Z,33.55
2022-08-11T13:34:33.624Z,33.54
2022-08-11T13:35:39.509Z,33.52
2022-08-11T13:36:43.244Z,34.34
2022-08-11T13:38:19.184Z,33.27
2022-08-11T13:39:14.308Z,33.53
2022-08-11T13:40:27.870Z,33.70
2022-08-11T13:41:39.511Z,33.54
2022-08-11T13:42:42.281Z,33.52
2022-08-11T13:43:45.683Z,33.32
2022-08-11T13:44:50.832Z,33.93
2022-08-11T13:46:13.896Z,34.22
2022-08-11T13:47:16.753Z,34.70
2022-08-11T13:48:19.203Z,33.79
2022-08-11T13:49:22.827Z,34.01
2022-08-11T13:50:45.399Z,33.97
2022-08-11T13:51:48.603Z,33.62
2022-08-11T13:52:53.470Z,33.73
2022-08-11T13:53:57.892Z,33.71
2022-08-11T13:55:08.556Z,33.95
2022-08-11T13:56:10.985Z,33.72
2022-08-11T13:58:09.096Z,33.72
2022-08-11T13:58:40.564Z,33.53
2022-08-11T13:59:52.483Z,33.55
2022-08-11T14:00:56.286Z,33.59
2022-08-11T14:02:28.799Z,33.54
2022-08-11T14:04:29.733Z,33.84
2022-08-11T14:05:17.964Z,33.90
2022-08-11T14:06:22.833Z,33.59
2022-08-11T14:07:32.964Z,33.51
2022-08-11T14:08:41.791Z,33.63
2022-08-11T14:09:47.237Z,33.56
2022-08-11T14:12:23.021Z,33.70
2022-08-11T14:13:06.379Z,33.46
2022-08-11T14:14:13.866Z,33.50
2022-08-11T14:15:34.037Z,33.76
2022-08-11T14:16:43.112Z,33.64
2022-08-11T14:17:48.974Z,33.74
2022-08-11T14:19:00.662Z,33.76
2022-08-11T14:20:14.169Z,33.61
2022-08-11T14:21:55.581Z,33.59
2022-08-11T14:22:59.599Z,33.55
2022-08-11T14:24:04.997Z,33.60
2022-08-11T14:25:07.691Z,33.74
2022-08-11T14:26:23.806Z,33.62
2022-08-11T14:28:30.424Z,33.70
2022-08-11T14:29:06.130Z,33.81
2022-08-11T14:30:28.847Z,33.58
2022-08-11T14:31:33.774Z,33.67
2022-08-11T14:32:36.224Z,34.04
2022-08-11T14:33:58.236Z,34.50
2022-08-11T14:35:01.509Z,33.54
2022-08-11T14:36:07.731Z,33.27
2022-08-11T14:37:21.998Z,33.48
2022-08-11T14:38:24.650Z,33.21
2022-08-11T14:39:30.027Z,33.32
2022-08-11T14:40:51.344Z,33.61
2022-08-11T14:42:14.975Z,33.47
2022-08-11T14:44:13.139Z,33.01
2022-08-11T14:45:21.211Z,33.36
2022-08-11T14:46:44.304Z,33.37
2022-08-11T14:47:50.725Z,33.34
2022-08-11T14:48:55.463Z,33.55
2022-08-11T14:50:10.398Z,33.84
2022-08-11T14:51:15.157Z,33.91
2022-08-11T14:52:21.808Z,33.49
2022-08-11T14:53:24.593Z,33.36
2022-08-11T14:54:49.355Z,33.53
2022-08-11T14:56:12.589Z,33.44
2022-08-11T14:57:16.500Z,33.50
2022-08-11T14:58:22.402Z,33.47
2022-08-11T14:59:26.641Z,33.56
2022-08-11T15:00:30.453Z,33.53
2022-08-11T15:01:51.774Z,33.77
2022-08-11T15:03:13.795Z,33.52
2022-08-11T15:04:36.555Z,33.61
2022-08-11T15:05:56.582Z,33.83
2022-08-11T15:07:00.515Z,33.69
2022-08-11T15:08:03.147Z,33.54
2022-08-11T15:09:09.002Z,34.12
2022-08-11T15:10:13.448Z,34.35
2022-08-11T15:11:37.560Z,34.58
2022-08-11T15:12:42.823Z,34.40
2022-08-11T15:13:45.224Z,34.76
2022-08-11T15:15:07.822Z,34.75
2022-08-11T15:16:45.706Z,34.99
2022-08-11T15:17:49.447Z,35.06
2022-08-11T15:18:52.100Z,35.54
2022-08-11T15:20:15.062Z,35.08
2022-08-11T15:21:36.073Z,35.04
2022-08-11T15:22:57.049Z,35.58
2022-08-11T15:24:17.880Z,34.98
2022-08-11T15:25:21.142Z,34.86
2022-08-11T15:26:48.722Z,35.03
2022-08-11T15:28:13.259Z,35.15
2022-08-11T15:29:40.167Z,35.58
2022-08-11T15:31:03.177Z,35.30
2022-08-11T15:32:20.749Z,35.14
2022-08-11T15:33:44.906Z,35.65
2022-08-11T15:35:10.310Z,35.64
2022-08-11T15:36:33.848Z,35.19
2022-08-11T15:37:38.112Z,35.27
2022-08-11T15:38:55.443Z,35.33
2022-08-11T15:40:30.163Z,35.23
2022-08-11T15:42:03.061Z,35.48
2022-08-11T15:43:46.671Z,36.05
2022-08-11T15:45:15.727Z,35.71
2022-08-11T15:46:29.834Z,36.03
2022-08-11T15:48:02.479Z,36.30
2022-08-11T15:50:11.755Z,36.76
2022-08-11T15:51:04.793Z,36.51
2022-08-11T15:52:13.396Z,36.38
2022-08-11T15:53:32.399Z,36.45
2022-08-11T15:54:39.817Z,36.22
2022-08-11T15:55:44.069Z,35.99
2022-08-11T15:56:50.321Z,36.03
2022-08-11T15:58:14.154Z,36.29
2022-08-11T15:59:42.940Z,36.44
2022-08-11T16:01:09.012Z,36.46
2022-08-11T16:02:33.039Z,37.00
2022-08-11T16:04:12.563Z,36.54
2022-08-11T16:05:45.855Z,36.60
2022-08-11T16:06:51.843Z,37.01
2022-08-11T16:07:55.934Z,37.18
2022-08-11T16:09:05.116Z,37.57
2022-08-11T16:10:22.444Z,36.52
2022-08-11T16:11:27.736Z,37.15
2022-08-11T16:12:33.283Z,37.40
2022-08-11T16:13:41.979Z,36.56
2022-08-11T16:15:06.357Z,36.67
2022-08-11T16:16:16.931Z,36.75
2022-08-11T16:17:24.419Z,37.06
2022-08-11T16:18:40.942Z,37.31
2022-08-11T16:19:46.843Z,37.70
2022-08-11T16:20:55.594Z,37.63
2022-08-11T16:21:58.080Z,37.32
2022-08-11T16:27:04.892Z,37.93
2022-08-11T16:27:24.473Z,38.54
2022-08-11T16:28:29.838Z,38.63
2022-08-11T16:29:33.927Z,38.72
2022-08-11T16:30:39.349Z,38.61
2022-08-11T16:32:02.913Z,38.36
2022-08-11T16:33:48.186Z,38.64
2022-08-11T16:34:50.953Z,38.46
2022-08-11T16:36:13.891Z,37.28
2022-08-11T16:37:35.316Z,37.37
2022-08-11T16:38:40.319Z,37.03
2022-08-11T16:39:44.291Z,38.18
2022-08-11T16:40:52.822Z,37.60
2022-08-11T16:43:08.533Z,37.50
2022-08-11T16:44:00.847Z,37.56
2022-08-11T16:45:23.979Z,37.71
2022-08-11T16:46:45.823Z,38.18
2022-08-11T16:48:03.381Z,39.35
2022-08-11T16:49:18.402Z,39.50
2022-08-11T16:50:21.427Z,40.21
2022-08-11T16:51:23.848Z,39.17
2022-08-11T16:52:26.304Z,38.55
2022-08-11T16:53:54.595Z,39.04
2022-08-11T16:54:53.061Z,40.03
2022-08-11T16:55:57.858Z,40.44
2022-08-11T16:57:23.425Z,40.88
2022-08-11T16:58:46.094Z,41.67